createdAt,value
2022-07-29T00:00:16.762Z,29
2022-07-29T00:00:48.039Z,68
2022-07-29T00:01:19.853Z,91
2022-07-29T00:01:52.033Z,82
2022-07-29T00:02:23.456Z,40
2022-07-29T00:02:56.102Z,58
2022-07-29T00:03:27.386Z,18
2022-07-29T00:04:00.290Z,84
2022-07-29T00:04:31.362Z,64
2022-07-29T00:05:04.035Z,89
2022-07-29T00:05:35.348Z,68
2022-07-29T00:06:07.962Z,83
2022-07-29T00:06:39.185Z,63
2022-07-29T00:07:12.008Z,79
2022-07-29T00:07:43.175Z,49
2022-07-29T00:08:15.758Z,42
2022-07-29T00:08:47.257Z,59
2022-07-29T00:09:19.571Z,57
2022-07-29T00:09:52.512Z,68
2022-07-29T00:10:23.872Z,118
2022-07-29T00:10:54.932Z,53
2022-07-29T00:11:27.751Z,110
2022-07-29T00:11:58.908Z,26
2022-07-29T00:12:31.642Z,77
2022-07-29T00:13:02.999Z,77
2022-07-29T00:13:35.792Z,50
2022-07-29T00:14:06.819Z,74
2022-07-29T00:14:39.525Z,88
2022-07-29T00:15:11.614Z,75
2022-07-29T00:15:43.806Z,84
2022-07-29T00:16:14.811Z,64
2022-07-29T00:16:47.441Z,86
2022-07-29T00:17:18.976Z,124
2022-07-29T00:17:51.450Z,70
2022-07-29T00:18:22.737Z,77
2022-07-29T00:18:55.405Z,89
2022-07-29T00:19:26.644Z,29
2022-07-29T00:19:59.143Z,82
2022-07-29T00:20:31.073Z,66
2022-07-29T00:21:03.252Z,28
2022-07-29T00:21:34.606Z,81
2022-07-29T00:22:07.281Z,76
2022-07-29T00:22:38.664Z,46
2022-07-29T00:23:13.654Z,40
2022-07-29T00:23:42.678Z,61
2022-07-29T00:24:15.536Z,92
2022-07-29T00:24:46.457Z,73
2022-07-29T00:25:19.310Z,73
2022-07-29T00:25:50.376Z,102
2022-07-29T00:26:23.054Z,83
2022-07-29T00:26:54.421Z,23
2022-07-29T00:27:26.967Z,100
2022-07-29T00:27:58.340Z,86
2022-07-29T00:28:30.986Z,66
2022-07-29T00:29:32.602Z,99
2022-07-29T00:29:50.407Z,101
2022-07-29T00:30:23.189Z,80
2022-07-29T00:30:54.938Z,66
2022-07-29T00:31:26.355Z,50
2022-07-29T00:31:58.838Z,118
2022-07-29T00:32:30.270Z,61
2022-07-29T00:33:05.853Z,55
2022-07-29T00:33:34.042Z,89
2022-07-29T00:34:06.818Z,45
2022-07-29T00:34:38.135Z,14
2022-07-29T00:35:10.635Z,89
2022-07-29T00:35:42.117Z,41
2022-07-29T00:36:14.640Z,70
2022-07-29T00:36:45.966Z,86
2022-07-29T00:37:18.519Z,76
2022-07-29T00:37:50.023Z,73
2022-07-29T00:38:22.526Z,136
2022-07-29T00:38:53.954Z,36
2022-07-29T00:39:26.376Z,63
2022-07-29T00:39:57.954Z,79
2022-07-29T00:40:30.640Z,85
2022-07-29T00:41:01.942Z,15
2022-07-29T00:41:34.549Z,61
2022-07-29T00:42:05.850Z,69
2022-07-29T00:42:38.541Z,76
2022-07-29T00:43:09.680Z,66
2022-07-29T00:43:42.203Z,110
2022-07-29T00:44:13.938Z,80
2022-07-29T00:44:46.352Z,86
2022-07-29T00:45:18.321Z,70
2022-07-29T00:45:50.367Z,76
2022-07-29T00:46:21.776Z,65
2022-07-29T00:46:54.322Z,60
2022-07-29T00:47:25.601Z,95
2022-07-29T00:47:58.217Z,101
2022-07-29T00:48:29.516Z,112
2022-07-29T00:49:02.034Z,18
2022-07-29T00:49:33.387Z,96
2022-07-29T00:50:06.114Z,74
2022-07-29T00:50:37.417Z,52
2022-07-29T00:51:10.100Z,81
2022-07-29T00:51:41.340Z,92
2022-07-29T00:52:16.939Z,88
2022-07-29T00:52:45.369Z,89
2022-07-29T00:53:17.775Z,59
2022-07-29T00:53:49.198Z,75
2022-07-29T00:54:22.014Z,90
2022-07-29T00:54:53.375Z,109
2022-07-29T00:55:27.255Z,95
2022-07-29T00:55:57.229Z,64
2022-07-29T00:56:29.786Z,70
2022-07-29T00:57:01.049Z,26
2022-07-29T00:57:33.816Z,93
2022-07-29T00:58:05.124Z,64
2022-07-29T00:58:37.782Z,80
2022-07-29T00:59:09.079Z,209
2022-07-29T00:59:41.676Z,210
2022-07-29T01:00:13.916Z,158
2022-07-29T01:00:45.680Z,136
2022-07-29T01:01:17.228Z,86
2022-07-29T01:01:49.655Z,113
2022-07-29T01:02:21.010Z,111
2022-07-29T01:02:53.520Z,116
2022-07-29T01:03:24.861Z,123
2022-07-29T01:03:57.329Z,123
2022-07-29T01:04:28.850Z,122
2022-07-29T01:05:01.864Z,123
2022-07-29T01:05:48.148Z,167
2022-07-29T01:06:05.380Z,95
2022-07-29T01:06:36.915Z,183
2022-07-29T01:07:09.476Z,195
2022-07-29T01:07:40.785Z,192
2022-07-29T01:08:13.599Z,192
2022-07-29T01:08:44.699Z,192
2022-07-29T01:09:17.198Z,187
2022-07-29T01:09:48.776Z,186
2022-07-29T01:10:21.447Z,173
2022-07-29T01:10:52.677Z,167
2022-07-29T01:11:25.341Z,159
2022-07-29T01:11:56.475Z,157
2022-07-29T01:12:29.235Z,147
2022-07-29T01:13:00.552Z,148
2022-07-29T01:13:32.983Z,148
2022-07-29T01:14:04.525Z,148
2022-07-29T01:14:37.314Z,148
2022-07-29T01:15:09.182Z,148
2022-07-29T01:15:41.068Z,148
2022-07-29T01:16:12.547Z,147
2022-07-29T01:16:44.854Z,147
2022-07-29T01:17:16.421Z,148
2022-07-29T01:17:52.403Z,148
2022-07-29T01:18:21.996Z,148
2022-07-29T01:18:53.854Z,148
2022-07-29T01:19:24.205Z,148
2022-07-29T01:19:56.596Z,148
2022-07-29T01:20:31.735Z,147
2022-07-29T01:21:00.858Z,148
2022-07-29T01:21:32.124Z,147
2022-07-29T01:22:04.725Z,147
2022-07-29T01:22:36.150Z,147
2022-07-29T01:23:08.993Z,147
2022-07-29T01:23:40.041Z,147
2022-07-29T01:24:13.508Z,147
2022-07-29T01:24:44.054Z,147
2022-07-29T01:25:16.859Z,147
2022-07-29T01:25:53.127Z,147
2022-07-29T01:26:20.752Z,147
2022-07-29T01:26:52.001Z,148
2022-07-29T01:27:24.607Z,137
2022-07-29T01:27:56.003Z,136
2022-07-29T01:28:28.412Z,136
2022-07-29T01:28:59.856Z,136
2022-07-29T01:29:38.788Z,136
2022-07-29T01:30:05.160Z,135
2022-07-29T01:30:19.781Z,135
2022-07-29T01:30:52.001Z,135
2022-07-29T01:31:25.402Z,135
2022-07-29T01:31:59.316Z,135
2022-07-29T01:32:29.170Z,135
2022-07-29T01:33:00.352Z,135
2022-07-29T01:33:31.642Z,135
2022-07-29T01:34:04.032Z,134
2022-07-29T01:34:35.626Z,61
2022-07-29T01:35:08.398Z,52
2022-07-29T01:35:39.474Z,43
2022-07-29T01:36:12.037Z,42
2022-07-29T01:36:43.638Z,42
2022-07-29T01:37:16.151Z,42
2022-07-29T01:37:47.474Z,42
2022-07-29T01:38:20.129Z,42
2022-07-29T01:38:51.573Z,42
2022-07-29T01:39:24.065Z,42
2022-07-29T01:39:55.480Z,42
2022-07-29T01:40:28.507Z,42
2022-07-29T01:40:59.269Z,42
2022-07-29T01:41:31.955Z,42
2022-07-29T01:42:03.365Z,42
2022-07-29T01:42:36.348Z,42
2022-07-29T01:43:07.296Z,42
2022-07-29T01:43:40.016Z,42
2022-07-29T01:44:11.157Z,25
2022-07-29T01:44:44.241Z,299
2022-07-29T01:45:15.965Z,299
2022-07-29T01:45:47.923Z,299
2022-07-29T01:46:19.217Z,299
2022-07-29T01:46:52.076Z,299
2022-07-29T01:47:23.125Z,299
2022-07-29T01:47:55.782Z,299
2022-07-29T01:48:27.059Z,299
2022-07-29T01:48:59.597Z,300
2022-07-29T01:49:31.049Z,300
2022-07-29T01:50:03.916Z,60
2022-07-29T01:50:35.138Z,86
2022-07-29T01:51:07.759Z,86
2022-07-29T01:51:39.019Z,78
2022-07-29T01:52:11.536Z,78
2022-07-29T01:52:42.943Z,72
2022-07-29T01:53:15.468Z,81
2022-07-29T01:53:46.956Z,82
2022-07-29T01:54:19.654Z,78
2022-07-29T01:54:50.873Z,72
2022-07-29T01:55:23.644Z,71
2022-07-29T01:55:54.833Z,66
2022-07-29T01:56:27.303Z,84
2022-07-29T01:56:58.832Z,84
2022-07-29T01:57:31.229Z,85
2022-07-29T01:58:02.837Z,78
2022-07-29T01:58:35.482Z,62
2022-07-29T01:59:06.541Z,54
2022-07-29T01:59:39.572Z,57
2022-07-29T02:00:12.218Z,61
2022-07-29T02:00:43.648Z,54
2022-07-29T02:01:14.689Z,51
2022-07-29T02:01:47.119Z,40
2022-07-29T02:02:18.553Z,40
2022-07-29T02:02:51.173Z,40
2022-07-29T02:03:22.716Z,51
2022-07-29T02:03:55.036Z,50
2022-07-29T02:04:28.865Z,49
2022-07-29T02:04:59.197Z,55
2022-07-29T02:05:30.840Z,42
2022-07-29T02:06:03.102Z,54
2022-07-29T02:06:34.427Z,53
2022-07-29T02:07:06.963Z,52
2022-07-29T02:07:38.302Z,53
2022-07-29T02:08:11.145Z,52
2022-07-29T02:08:42.556Z,52
2022-07-29T02:09:14.936Z,52
2022-07-29T02:09:46.235Z,52
2022-07-29T02:10:19.254Z,51
2022-07-29T02:10:50.183Z,49
2022-07-29T02:11:22.855Z,56
2022-07-29T02:11:54.216Z,56
2022-07-29T02:12:26.808Z,56
2022-07-29T02:12:58.095Z,56
2022-07-29T02:13:30.827Z,56
2022-07-29T02:14:01.882Z,56
2022-07-29T02:14:34.539Z,56
2022-07-29T02:15:06.882Z,56
2022-07-29T02:15:38.587Z,56
2022-07-29T02:16:10.110Z,56
2022-07-29T02:16:42.580Z,56
2022-07-29T02:17:13.720Z,56
2022-07-29T02:17:47.702Z,56
2022-07-29T02:18:17.892Z,39
2022-07-29T02:18:50.278Z,38
2022-07-29T02:19:21.727Z,35
2022-07-29T02:19:54.415Z,37
2022-07-29T02:20:25.992Z,26
2022-07-29T02:20:58.266Z,24
2022-07-29T02:21:29.698Z,24
2022-07-29T02:22:02.243Z,24
2022-07-29T02:22:33.691Z,24
2022-07-29T02:23:06.698Z,24
2022-07-29T02:23:45.170Z,24
2022-07-29T02:24:10.114Z,24
2022-07-29T02:24:41.626Z,24
2022-07-29T02:25:14.426Z,24
2022-07-29T02:25:45.429Z,24
2022-07-29T02:26:18.187Z,24
2022-07-29T02:26:49.888Z,24
2022-07-29T02:27:21.994Z,47
2022-07-29T02:27:53.484Z,64
2022-07-29T02:28:26.034Z,71
2022-07-29T02:28:57.372Z,71
2022-07-29T02:29:29.918Z,71
2022-07-29T02:30:02.721Z,56
2022-07-29T02:30:33.808Z,55
2022-07-29T02:31:05.343Z,54
2022-07-29T02:31:38.161Z,35
2022-07-29T02:32:09.165Z,65
2022-07-29T02:32:42.002Z,38
2022-07-29T02:33:13.302Z,38
2022-07-29T02:33:45.689Z,38
2022-07-29T02:34:17.535Z,57
2022-07-29T02:34:49.904Z,49
2022-07-29T02:35:21.335Z,50
2022-07-29T02:35:53.702Z,71
2022-07-29T02:36:25.206Z,71
2022-07-29T02:36:57.796Z,38
2022-07-29T02:37:29.083Z,48
2022-07-29T02:38:02.224Z,72
2022-07-29T02:38:33.132Z,68
2022-07-29T02:39:05.582Z,65
2022-07-29T02:39:37.058Z,66
2022-07-29T02:40:09.697Z,77
2022-07-29T02:40:40.993Z,77
2022-07-29T02:41:13.407Z,65
2022-07-29T02:41:45.086Z,39
2022-07-29T02:42:18.033Z,29
2022-07-29T02:42:48.893Z,60
2022-07-29T02:43:21.467Z,62
2022-07-29T02:43:52.737Z,74
2022-07-29T02:44:25.433Z,49
2022-07-29T02:44:56.854Z,58
2022-07-29T02:45:30.208Z,63
2022-07-29T02:46:00.839Z,71
2022-07-29T02:46:33.442Z,68
2022-07-29T02:47:04.749Z,54
2022-07-29T02:47:42.069Z,42
2022-07-29T02:48:08.750Z,85
2022-07-29T02:48:41.200Z,55
2022-07-29T02:49:12.593Z,55
2022-07-29T02:49:45.169Z,58
2022-07-29T02:50:16.675Z,82
2022-07-29T02:50:49.219Z,82
2022-07-29T02:51:44.135Z,108
2022-07-29T02:51:52.944Z,99
2022-07-29T02:52:24.421Z,79
2022-07-29T02:52:57.067Z,78
2022-07-29T02:53:28.332Z,72
2022-07-29T02:54:01.184Z,88
2022-07-29T02:54:32.433Z,30
2022-07-29T02:55:05.389Z,31
2022-07-29T02:55:36.228Z,74
2022-07-29T02:56:08.936Z,71
2022-07-29T02:56:40.339Z,71
2022-07-29T02:57:12.743Z,71
2022-07-29T02:57:54.345Z,70
2022-07-29T02:58:16.848Z,70
2022-07-29T02:58:48.048Z,49
2022-07-29T02:59:20.786Z,49
2022-07-29T02:59:52.250Z,50
2022-07-29T03:00:26.091Z,50
2022-07-29T03:00:56.128Z,50
2022-07-29T03:01:28.731Z,50
2022-07-29T03:02:00.146Z,50
2022-07-29T03:02:32.629Z,50
2022-07-29T03:03:04.095Z,50
2022-07-29T03:03:37.758Z,50
2022-07-29T03:04:07.887Z,50
2022-07-29T03:04:40.614Z,50
2022-07-29T03:05:12.125Z,50
2022-07-29T03:05:44.454Z,50
2022-07-29T03:06:28.559Z,50
2022-07-29T03:06:48.669Z,78
2022-07-29T03:07:19.806Z,171
2022-07-29T03:07:52.601Z,150
2022-07-29T03:08:23.707Z,167
2022-07-29T03:08:56.371Z,164
2022-07-29T03:09:27.617Z,148
2022-07-29T03:10:00.568Z,154
2022-07-29T03:10:31.477Z,148
2022-07-29T03:11:04.202Z,148
2022-07-29T03:11:42.243Z,147
2022-07-29T03:12:08.318Z,147
2022-07-29T03:12:39.697Z,146
2022-07-29T03:13:12.361Z,145
2022-07-29T03:13:43.613Z,145
2022-07-29T03:14:16.545Z,145
2022-07-29T03:14:47.570Z,130
2022-07-29T03:15:20.781Z,126
2022-07-29T03:15:51.567Z,126
2022-07-29T03:16:24.270Z,126
2022-07-29T03:16:55.453Z,126
2022-07-29T03:17:28.069Z,126
2022-07-29T03:17:59.525Z,126
2022-07-29T03:18:31.915Z,126
2022-07-29T03:19:03.310Z,126
2022-07-29T03:19:36.557Z,113
2022-07-29T03:20:07.413Z,113
2022-07-29T03:20:39.742Z,113
2022-07-29T03:21:11.446Z,113
2022-07-29T03:21:43.845Z,113
2022-07-29T03:22:15.268Z,113
2022-07-29T03:22:47.816Z,113
2022-07-29T03:23:19.138Z,113
2022-07-29T03:23:51.732Z,112
2022-07-29T03:24:23.154Z,113
2022-07-29T03:24:55.757Z,113
2022-07-29T03:25:27.326Z,113
2022-07-29T03:25:59.711Z,108
2022-07-29T03:26:30.888Z,87
2022-07-29T03:27:03.610Z,87
2022-07-29T03:27:35.054Z,87
2022-07-29T03:28:07.663Z,87
2022-07-29T03:28:38.923Z,87
2022-07-29T03:29:11.774Z,87
2022-07-29T03:29:49.590Z,87
2022-07-29T03:30:32.251Z,87
2022-07-29T03:31:02.905Z,87
2022-07-29T03:31:34.866Z,87
2022-07-29T03:32:08.736Z,87
2022-07-29T03:32:38.816Z,87
2022-07-29T03:33:13.487Z,87
2022-07-29T03:33:42.793Z,87
2022-07-29T03:34:14.970Z,87
2022-07-29T03:34:31.676Z,87
2022-07-29T03:35:02.836Z,87
2022-07-29T03:35:35.476Z,87
2022-07-29T03:36:06.751Z,87
2022-07-29T03:36:39.485Z,87
2022-07-29T03:37:10.621Z,87
2022-07-29T03:37:58.669Z,87
2022-07-29T03:38:30.951Z,87
2022-07-29T03:39:02.548Z,112
2022-07-29T03:39:34.482Z,104
2022-07-29T03:40:06.678Z,90
2022-07-29T03:40:38.403Z,78
2022-07-29T03:41:12.331Z,79
2022-07-29T03:41:42.525Z,79
2022-07-29T03:42:34.203Z,40
2022-07-29T03:43:02.330Z,40
2022-07-29T03:43:34.957Z,40
2022-07-29T03:44:06.412Z,40
2022-07-29T03:44:40.242Z,40
2022-07-29T03:45:11.097Z,40
2022-07-29T03:45:43.171Z,39
2022-07-29T03:46:14.326Z,39
2022-07-29T03:46:46.992Z,39
2022-07-29T03:47:18.230Z,39
2022-07-29T03:47:53.750Z,39
2022-07-29T03:48:22.200Z,39
2022-07-29T03:48:54.829Z,39
2022-07-29T03:49:26.566Z,39
2022-07-29T03:49:58.779Z,39
2022-07-29T03:50:30.491Z,39
2022-07-29T03:51:02.695Z,39
2022-07-29T03:51:34.422Z,39
2022-07-29T03:52:06.830Z,39
2022-07-29T03:52:38.246Z,39
2022-07-29T03:53:10.606Z,39
2022-07-29T03:53:42.098Z,39
2022-07-29T03:54:14.695Z,39
2022-07-29T03:54:45.998Z,39
2022-07-29T03:55:18.965Z,39
2022-07-29T03:55:49.962Z,39
2022-07-29T03:56:22.666Z,39
2022-07-29T03:56:54.012Z,39
2022-07-29T03:57:26.706Z,39
2022-07-29T03:57:57.830Z,39
2022-07-29T03:58:30.449Z,39
2022-07-29T03:59:01.893Z,39
2022-07-29T03:59:34.444Z,39
2022-07-29T04:00:06.845Z,39
2022-07-29T04:00:38.582Z,39
2022-07-29T04:01:09.675Z,39
2022-07-29T04:01:42.809Z,39
2022-07-29T04:02:14.798Z,39
2022-07-29T04:02:46.359Z,39
2022-07-29T04:03:17.720Z,39
2022-07-29T04:03:50.443Z,39
2022-07-29T04:04:21.490Z,39
2022-07-29T04:04:54.188Z,39
2022-07-29T04:05:25.878Z,39
2022-07-29T04:05:58.017Z,39
2022-07-29T04:06:29.497Z,39
2022-07-29T04:07:02.191Z,39
2022-07-29T04:07:33.436Z,39
2022-07-29T04:08:06.239Z,39
2022-07-29T04:08:37.487Z,39
2022-07-29T04:09:10.200Z,39
2022-07-29T04:09:41.340Z,39
2022-07-29T04:10:14.320Z,39
2022-07-29T04:10:45.288Z,39
2022-07-29T04:11:17.883Z,39
2022-07-29T04:12:02.103Z,39
2022-07-29T04:12:21.785Z,39
2022-07-29T04:12:53.230Z,39
2022-07-29T04:13:26.030Z,39
2022-07-29T04:13:57.200Z,39
2022-07-29T04:14:29.614Z,39
2022-07-29T04:15:02.301Z,39
2022-07-29T04:15:33.925Z,39
2022-07-29T04:16:05.266Z,39
2022-07-29T04:16:37.808Z,39
2022-07-29T04:17:09.275Z,39
2022-07-29T04:17:41.664Z,39
2022-07-29T04:18:12.974Z,39
2022-07-29T04:18:45.711Z,39
2022-07-29T04:19:16.962Z,39
2022-07-29T04:19:49.496Z,39
2022-07-29T04:20:21.188Z,39
2022-07-29T04:20:53.725Z,39
2022-07-29T04:21:24.895Z,39
2022-07-29T04:21:57.760Z,39
2022-07-29T04:22:28.867Z,39
2022-07-29T04:23:01.517Z,39
2022-07-29T04:23:32.843Z,39
2022-07-29T04:24:05.140Z,39
2022-07-29T04:24:36.799Z,39
2022-07-29T04:25:09.570Z,39
2022-07-29T04:25:40.675Z,39
2022-07-29T04:26:13.575Z,39
2022-07-29T04:26:44.756Z,39
2022-07-29T04:27:17.389Z,39
2022-07-29T04:27:48.691Z,39
2022-07-29T04:28:21.405Z,39
2022-07-29T04:28:52.784Z,39
2022-07-29T04:29:25.207Z,39
2022-07-29T04:29:57.590Z,39
2022-07-29T04:30:30.258Z,39
2022-07-29T04:31:00.467Z,39
2022-07-29T04:31:33.041Z,39
2022-07-29T04:32:04.517Z,39
2022-07-29T04:32:37.048Z,39
2022-07-29T04:33:08.445Z,39
2022-07-29T04:33:41.183Z,39
2022-07-29T04:34:12.402Z,39
2022-07-29T04:34:44.993Z,39
2022-07-29T04:35:16.561Z,39
2022-07-29T04:35:52.393Z,39
2022-07-29T04:36:28.551Z,39
2022-07-29T04:36:53.012Z,39
2022-07-29T04:37:24.621Z,39
2022-07-29T04:37:56.739Z,39
2022-07-29T04:38:28.249Z,39
2022-07-29T04:39:00.940Z,39
2022-07-29T04:39:32.173Z,39
2022-07-29T04:40:05.114Z,39
2022-07-29T04:40:38.663Z,39
2022-07-29T04:41:08.705Z,39
2022-07-29T04:41:40.034Z,39
2022-07-29T04:42:13.306Z,39
2022-07-29T04:42:46.714Z,39
2022-07-29T04:43:16.683Z,39
2022-07-29T04:43:47.992Z,39
2022-07-29T04:44:20.503Z,39
2022-07-29T04:44:51.984Z,39
2022-07-29T04:45:25.582Z,39
2022-07-29T04:45:55.932Z,39
2022-07-29T04:46:28.520Z,39
2022-07-29T04:46:59.911Z,39
2022-07-29T04:47:32.392Z,39
2022-07-29T04:48:03.852Z,39
2022-07-29T04:48:36.456Z,39
2022-07-29T04:49:07.942Z,39
2022-07-29T04:49:40.392Z,39
2022-07-29T04:50:11.935Z,39
2022-07-29T04:50:44.593Z,39
2022-07-29T04:51:15.597Z,39
2022-07-29T04:51:48.204Z,39
2022-07-29T04:52:19.755Z,39
2022-07-29T04:52:52.113Z,39
2022-07-29T04:53:23.733Z,39
2022-07-29T04:53:56.242Z,39
2022-07-29T04:54:27.512Z,39
2022-07-29T04:55:00.018Z,39
2022-07-29T04:55:31.773Z,39
2022-07-29T04:56:03.993Z,39
2022-07-29T04:56:35.441Z,39
2022-07-29T04:57:08.257Z,39
2022-07-29T04:57:39.484Z,39
2022-07-29T04:58:12.127Z,39
2022-07-29T04:58:43.398Z,39
2022-07-29T04:59:16.057Z,39
2022-07-29T04:59:47.329Z,39
2022-07-29T05:00:20.774Z,39
2022-07-29T05:00:51.302Z,39
2022-07-29T05:01:23.945Z,39
2022-07-29T05:01:55.376Z,39
2022-07-29T05:02:28.055Z,39
2022-07-29T05:02:59.243Z,39
2022-07-29T05:03:31.819Z,39
2022-07-29T05:04:03.238Z,38
2022-07-29T05:04:35.651Z,39
2022-07-29T05:05:07.284Z,39
2022-07-29T05:05:39.823Z,39
2022-07-29T05:06:11.118Z,39
2022-07-29T05:06:43.788Z,39
2022-07-29T05:07:15.172Z,39
2022-07-29T05:07:47.595Z,39
2022-07-29T05:08:18.994Z,39
2022-07-29T05:08:51.617Z,39
2022-07-29T05:09:22.958Z,39
2022-07-29T05:09:55.377Z,39
2022-07-29T05:10:27.220Z,39
2022-07-29T05:10:59.376Z,39
2022-07-29T05:11:30.825Z,39
2022-07-29T05:12:03.444Z,39
2022-07-29T05:12:34.793Z,39
2022-07-29T05:13:07.399Z,39
2022-07-29T05:13:45.001Z,39
2022-07-29T05:14:11.399Z,39
2022-07-29T05:14:42.688Z,39
2022-07-29T05:15:16.030Z,39
2022-07-29T05:15:46.850Z,39
2022-07-29T05:16:19.282Z,39
2022-07-29T05:16:50.673Z,39
2022-07-29T05:17:23.236Z,39
2022-07-29T05:17:54.693Z,39
2022-07-29T05:18:27.243Z,39
2022-07-29T05:18:58.607Z,39
2022-07-29T05:19:31.117Z,39
2022-07-29T05:20:02.678Z,39
2022-07-29T05:20:35.468Z,39
2022-07-29T05:21:06.442Z,39
2022-07-29T05:21:39.093Z,39
2022-07-29T05:22:10.568Z,39
2022-07-29T05:22:43.017Z,39
2022-07-29T05:23:14.427Z,39
2022-07-29T05:23:46.980Z,39
2022-07-29T05:24:18.702Z,39
2022-07-29T05:24:51.121Z,39
2022-07-29T05:25:22.663Z,39
2022-07-29T05:25:55.118Z,39
2022-07-29T05:26:26.224Z,39
2022-07-29T05:26:58.968Z,39
2022-07-29T05:27:30.105Z,39
2022-07-29T05:28:02.797Z,39
2022-07-29T05:28:34.193Z,39
2022-07-29T05:29:07.019Z,39
2022-07-29T05:29:41.184Z,158
2022-07-29T05:30:11.485Z,168
2022-07-29T05:30:42.264Z,186
2022-07-29T05:31:14.551Z,187
2022-07-29T05:31:46.079Z,187
2022-07-29T05:32:18.736Z,188
2022-07-29T05:32:49.935Z,188
2022-07-29T05:33:35.700Z,188
2022-07-29T05:33:54.043Z,188
2022-07-29T05:34:26.493Z,188
2022-07-29T05:34:57.922Z,188
2022-07-29T05:35:30.899Z,188
2022-07-29T05:36:01.819Z,188
2022-07-29T05:36:34.588Z,187
2022-07-29T05:37:05.950Z,187
2022-07-29T05:37:38.237Z,188
2022-07-29T05:38:10.056Z,187
2022-07-29T05:38:42.589Z,187
2022-07-29T05:39:14.081Z,187
2022-07-29T05:39:49.074Z,187
2022-07-29T05:40:18.123Z,81
2022-07-29T05:40:50.531Z,81
2022-07-29T05:41:21.780Z,71
2022-07-29T05:41:54.475Z,79
2022-07-29T05:42:26.019Z,91
2022-07-29T05:42:58.447Z,95
2022-07-29T05:43:29.952Z,78
2022-07-29T05:44:02.397Z,75
2022-07-29T05:44:33.700Z,84
2022-07-29T05:45:07.241Z,65
2022-07-29T05:45:49.673Z,85
2022-07-29T05:46:10.445Z,75
2022-07-29T05:46:41.796Z,74
2022-07-29T05:47:14.334Z,78
2022-07-29T05:47:45.590Z,64
2022-07-29T05:48:18.304Z,75
2022-07-29T05:48:49.739Z,87
2022-07-29T05:49:26.943Z,76
2022-07-29T05:49:53.485Z,85
2022-07-29T05:50:26.922Z,92
2022-07-29T05:50:57.444Z,71
2022-07-29T05:51:30.021Z,87
2022-07-29T05:52:01.552Z,44
2022-07-29T05:52:34.182Z,60
2022-07-29T05:53:19.353Z,67
2022-07-29T05:53:38.091Z,52
2022-07-29T05:54:09.586Z,52
2022-07-29T05:54:41.950Z,52
2022-07-29T05:55:13.719Z,53
2022-07-29T05:55:46.497Z,53
2022-07-29T05:56:17.265Z,53
2022-07-29T05:56:49.911Z,53
2022-07-29T05:57:21.349Z,48
2022-07-29T05:57:53.793Z,49
2022-07-29T05:58:25.154Z,49
2022-07-29T05:58:57.729Z,49
2022-07-29T05:59:30.604Z,49
2022-07-29T06:00:03.431Z,56
2022-07-29T06:00:33.145Z,56
2022-07-29T06:01:05.512Z,56
2022-07-29T06:01:37.166Z,61
2022-07-29T06:02:09.805Z,76
2022-07-29T06:02:41.068Z,52
2022-07-29T06:03:13.666Z,52
2022-07-29T06:03:45.024Z,52
2022-07-29T06:04:17.805Z,52
2022-07-29T06:04:49.020Z,52
2022-07-29T06:05:21.821Z,52
2022-07-29T06:05:52.818Z,52
2022-07-29T06:06:25.346Z,52
2022-07-29T06:06:56.960Z,52
2022-07-29T06:07:29.563Z,171
2022-07-29T06:08:00.887Z,140
2022-07-29T06:08:33.524Z,124
2022-07-29T06:09:12.137Z,81
2022-07-29T06:09:37.307Z,81
2022-07-29T06:10:08.772Z,81
2022-07-29T06:10:41.279Z,123
2022-07-29T06:11:12.805Z,148
2022-07-29T06:11:45.234Z,151
2022-07-29T06:12:16.638Z,104
2022-07-29T06:12:49.399Z,164
2022-07-29T06:13:20.501Z,123
2022-07-29T06:13:53.153Z,57
2022-07-29T06:14:24.582Z,115
2022-07-29T06:14:57.139Z,102
2022-07-29T06:15:29.537Z,111
2022-07-29T06:16:01.355Z,113
2022-07-29T06:16:32.550Z,88
2022-07-29T06:17:05.162Z,107
2022-07-29T06:17:36.504Z,107
2022-07-29T06:18:09.000Z,107
2022-07-29T06:18:40.363Z,87
2022-07-29T06:19:13.022Z,106
2022-07-29T06:19:44.457Z,106
2022-07-29T06:20:17.081Z,82
2022-07-29T06:20:48.444Z,27
2022-07-29T06:21:20.878Z,141
2022-07-29T06:21:52.199Z,81
2022-07-29T06:22:25.094Z,80
2022-07-29T06:22:56.178Z,87
2022-07-29T06:23:29.290Z,76
2022-07-29T06:24:00.255Z,136
2022-07-29T06:24:32.934Z,126
2022-07-29T06:25:06.913Z,87
2022-07-29T06:25:37.049Z,154
2022-07-29T06:26:08.237Z,35
2022-07-29T06:26:40.662Z,115
2022-07-29T06:27:12.367Z,107
2022-07-29T06:27:44.797Z,129
2022-07-29T06:28:16.181Z,142
2022-07-29T06:28:49.201Z,84
2022-07-29T06:29:20.501Z,72
2022-07-29T06:29:52.641Z,109
2022-07-29T06:30:25.075Z,80
2022-07-29T06:30:56.657Z,80
2022-07-29T06:31:27.969Z,66
2022-07-29T06:32:00.518Z,147
2022-07-29T06:32:31.758Z,188
2022-07-29T06:33:04.552Z,101
2022-07-29T06:33:35.905Z,111
2022-07-29T06:34:08.924Z,90
2022-07-29T06:34:40.173Z,137
2022-07-29T06:35:40.900Z,65
2022-07-29T06:35:59.859Z,108
2022-07-29T06:36:31.749Z,121
2022-07-29T06:37:04.079Z,92
2022-07-29T06:37:35.895Z,187
2022-07-29T06:38:30.191Z,182
2022-07-29T06:38:42.871Z,247
2022-07-29T06:39:12.285Z,197
2022-07-29T06:39:44.377Z,93
2022-07-29T06:40:16.320Z,121
2022-07-29T06:40:48.695Z,56
2022-07-29T06:41:20.704Z,53
2022-07-29T06:41:53.535Z,47
2022-07-29T06:42:23.797Z,44
2022-07-29T06:42:56.398Z,44
2022-07-29T06:43:27.583Z,44
2022-07-29T06:44:00.414Z,44
2022-07-29T06:44:31.712Z,245
2022-07-29T06:45:09.206Z,227
2022-07-29T06:45:35.389Z,221
2022-07-29T06:46:08.250Z,131
2022-07-29T06:46:39.307Z,149
2022-07-29T06:47:11.972Z,138
2022-07-29T06:47:43.195Z,200
2022-07-29T06:48:15.766Z,195
2022-07-29T06:48:47.225Z,117
2022-07-29T06:49:19.848Z,177
2022-07-29T06:49:51.010Z,164
2022-07-29T06:50:07.787Z,162
2022-07-29T06:50:39.398Z,239
2022-07-29T06:51:11.419Z,179
2022-07-29T06:51:43.036Z,171
2022-07-29T06:52:15.201Z,171
2022-07-29T06:52:47.634Z,171
2022-07-29T06:53:19.016Z,187
2022-07-29T06:53:59.919Z,125
2022-07-29T06:54:23.012Z,97
2022-07-29T06:54:55.675Z,59
2022-07-29T06:55:27.057Z,131
2022-07-29T06:55:59.532Z,131
2022-07-29T06:56:31.078Z,131
2022-07-29T06:57:03.560Z,99
2022-07-29T06:57:34.703Z,79
2022-07-29T06:58:07.550Z,72
2022-07-29T06:58:38.866Z,71
2022-07-29T06:59:11.468Z,45
2022-07-29T06:59:42.945Z,233
2022-07-29T07:00:16.803Z,85
2022-07-29T07:00:46.820Z,85
2022-07-29T07:01:19.266Z,89
2022-07-29T07:01:50.766Z,76
2022-07-29T07:02:23.315Z,148
2022-07-29T07:02:54.771Z,90
2022-07-29T07:03:27.419Z,107
2022-07-29T07:03:58.671Z,132
2022-07-29T07:04:32.265Z,111
2022-07-29T07:05:03.082Z,111
2022-07-29T07:05:35.375Z,102
2022-07-29T07:06:06.552Z,133
2022-07-29T07:06:39.315Z,103
2022-07-29T07:07:10.456Z,97
2022-07-29T07:07:43.334Z,84
2022-07-29T07:08:14.587Z,184
2022-07-29T07:08:47.020Z,237
2022-07-29T07:09:18.401Z,195
2022-07-29T07:09:51.066Z,120
2022-07-29T07:10:22.437Z,181
2022-07-29T07:10:54.856Z,160
2022-07-29T07:11:26.452Z,125
2022-07-29T07:11:58.817Z,124
2022-07-29T07:12:30.238Z,206
2022-07-29T07:13:02.913Z,209
2022-07-29T07:13:34.112Z,142
2022-07-29T07:14:06.798Z,130
2022-07-29T07:14:38.430Z,195
2022-07-29T07:15:12.186Z,156
2022-07-29T07:15:42.259Z,149
2022-07-29T07:16:14.982Z,163
2022-07-29T07:16:46.183Z,31
2022-07-29T07:17:18.890Z,65
2022-07-29T07:17:50.108Z,223
2022-07-29T07:18:22.551Z,243
2022-07-29T07:18:54.118Z,99
2022-07-29T07:19:26.714Z,73
2022-07-29T07:19:58.219Z,138
2022-07-29T07:20:30.983Z,178
2022-07-29T07:21:02.218Z,193
2022-07-29T07:21:34.503Z,106
2022-07-29T07:22:05.969Z,86
2022-07-29T07:22:39.012Z,257
2022-07-29T07:23:09.779Z,256
2022-07-29T07:23:42.493Z,221
2022-07-29T07:24:14.255Z,230
2022-07-29T07:24:46.451Z,150
2022-07-29T07:25:18.141Z,126
2022-07-29T07:25:50.541Z,232
2022-07-29T07:26:21.702Z,256
2022-07-29T07:26:54.245Z,182
2022-07-29T07:27:25.900Z,155
2022-07-29T07:27:58.189Z,198
2022-07-29T07:28:29.498Z,215
2022-07-29T07:29:02.694Z,54
2022-07-29T07:29:33.880Z,26
2022-07-29T07:30:07.275Z,154
2022-07-29T07:30:37.642Z,140
2022-07-29T07:31:10.185Z,170
2022-07-29T07:31:41.660Z,178